createdAt,value
2019-01-27T00:00:02.886Z,0
2019-01-27T00:05:02.624Z,1
2019-01-27T00:10:03.061Z,1
2019-01-27T00:15:02.490Z,1
2019-01-27T00:20:02.118Z,1
2019-01-27T00:25:01.653Z,1
2019-01-27T00:30:02.986Z,1
2019-01-27T00:35:02.415Z,1
2019-01-27T00:40:02.848Z,1
2019-01-27T00:45:03.194Z,1
2019-01-27T00:50:02.614Z,1
2019-01-27T00:55:02.951Z,1
2019-01-27T01:00:03.342Z,1
2019-01-27T01:05:02.747Z,1
2019-01-27T01:10:03.152Z,1
2019-01-27T01:15:02.578Z,1
2019-01-27T01:20:02.925Z,1
2019-01-27T01:25:03.363Z,1
2019-01-27T01:30:02.688Z,1
2019-01-27T01:35:03.125Z,1
2019-01-27T01:40:02.532Z,1
2019-01-27T01:45:02.889Z,1
2019-01-27T01:50:03.224Z,1
2019-01-27T01:55:02.626Z,1
2019-01-27T02:00:02.989Z,1
2019-01-27T02:05:02.411Z,1
2019-01-27T02:10:02.844Z,1
2019-01-27T02:15:03.233Z,1
2019-01-27T02:20:02.599Z,1
2019-01-27T02:25:02.992Z,1
2019-01-27T02:30:02.375Z,1
2019-01-27T02:35:02.766Z,1
2019-01-27T02:40:03.166Z,1
2019-01-27T02:45:02.565Z,1
2019-01-27T02:50:02.943Z,1
2019-01-27T02:55:02.518Z,1
2019-01-27T03:00:02.878Z,1
2019-01-27T03:05:03.221Z,1
2019-01-27T03:10:02.621Z,1
2019-01-27T03:15:02.958Z,1
2019-01-27T03:20:02.398Z,1
2019-01-27T03:25:02.849Z,1
2019-01-27T03:30:03.288Z,1
2019-01-27T03:35:02.689Z,1
2019-01-27T03:40:03.172Z,1
2019-01-27T03:45:02.587Z,1
2019-01-27T03:50:03.002Z,1
2019-01-27T03:55:02.457Z,1
2019-01-27T04:00:03.186Z,1
2019-01-27T04:05:02.603Z,1
2019-01-27T04:10:03.137Z,1
2019-01-27T04:15:02.561Z,1
2019-01-27T04:20:03.000Z,1
2019-01-27T04:25:02.426Z,1
2019-01-27T04:30:02.758Z,1
2019-01-27T04:35:03.121Z,1
2019-01-27T04:40:02.523Z,1
2019-01-27T04:45:02.854Z,1
2019-01-27T04:50:03.255Z,1
2019-01-27T04:55:02.653Z,1
2019-01-27T05:00:03.073Z,1
2019-01-27T05:10:03.042Z,1
2019-01-27T05:15:02.492Z,1
2019-01-27T05:20:02.931Z,1
2019-01-27T05:25:03.351Z,1
2019-01-27T05:30:02.763Z,1
2019-01-27T05:35:03.205Z,1
2019-01-27T05:40:02.614Z,1
2019-01-27T05:45:02.949Z,1
2019-01-27T05:50:02.586Z,1
2019-01-27T05:55:02.924Z,1
2019-01-27T06:00:03.316Z,1
2019-01-27T06:05:02.685Z,1
2019-01-27T06:10:03.134Z,1
2019-01-27T06:15:02.542Z,1
2019-01-27T06:20:02.896Z,1
2019-01-27T06:25:03.353Z,1
2019-01-27T06:30:02.748Z,1
2019-01-27T06:35:03.092Z,1
2019-01-27T06:40:02.495Z,1
2019-01-27T06:45:02.860Z,1
2019-01-27T06:50:03.193Z,2
2019-01-27T06:55:02.603Z,3
2019-01-27T07:00:02.993Z,4
2019-01-27T07:05:02.368Z,8
2019-01-27T07:10:02.824Z,16
2019-01-27T07:15:03.263Z,25
2019-01-27T07:20:02.666Z,45
2019-01-27T07:25:03.013Z,50
2019-01-27T07:30:02.433Z,62
2019-01-27T07:35:02.763Z,76
2019-01-27T07:40:03.230Z,93
2019-01-27T07:45:02.634Z,88
2019-01-27T07:50:02.995Z,201
2019-01-27T07:55:02.411Z,314
2019-01-27T08:00:02.846Z,387
2019-01-27T08:05:03.291Z,348
2019-01-27T08:10:02.683Z,287
2019-01-27T08:15:03.056Z,313
2019-01-27T08:20:02.385Z,265
2019-01-27T08:25:02.808Z,567
2019-01-27T08:30:03.161Z,893
2019-01-27T08:35:02.491Z,865
2019-01-27T08:40:02.941Z,767
2019-01-27T08:45:03.357Z,975
2019-01-27T08:50:02.811Z,1000
2019-01-27T08:55:03.234Z,865
2019-01-27T09:00:02.831Z,617
2019-01-27T09:05:03.180Z,686
2019-01-27T09:10:02.602Z,551
2019-01-27T09:15:02.944Z,780
2019-01-27T09:20:03.379Z,705
2019-01-27T09:25:02.791Z,975
2019-01-27T09:30:03.444Z,1000
2019-01-27T09:35:02.868Z,1000
2019-01-27T09:40:03.311Z,942
2019-01-27T09:45:02.721Z,885
2019-01-27T09:50:02.267Z,776
2019-01-27T09:55:02.593Z,1000
2019-01-27T10:00:02.978Z,1000
2019-01-27T10:05:02.352Z,1000
2019-01-27T10:10:02.798Z,1000
2019-01-27T10:15:03.241Z,1000
2019-01-27T10:20:02.684Z,1000
2019-01-27T10:25:03.103Z,1000
2019-01-27T10:30:02.518Z,968
2019-01-27T10:35:02.861Z,968
2019-01-27T10:40:09.241Z,749
2019-01-27T10:45:03.022Z,995
2019-01-27T10:50:02.482Z,1000
2019-01-27T10:55:02.895Z,2000
2019-01-27T11:00:03.339Z,3000
2019-01-27T11:05:02.751Z,4000
2019-01-27T11:10:03.198Z,3000
2019-01-27T11:15:01.817Z,1000
2019-01-27T11:20:03.263Z,1000
2019-01-27T11:25:01.883Z,1000
2019-01-27T11:30:03.231Z,1000
2019-01-27T11:35:02.566Z,1000
2019-01-27T11:40:02.991Z,1000
2019-01-27T11:45:02.411Z,2000
2019-01-27T11:50:02.764Z,2000
2019-01-27T11:55:03.210Z,2000
2019-01-27T12:00:02.606Z,2000
2019-01-27T12:05:02.950Z,803
2019-01-27T12:10:02.375Z,1000
2019-01-27T12:15:02.742Z,2000
2019-01-27T12:20:03.168Z,2000
2019-01-27T12:25:02.569Z,2000
2019-01-27T12:30:03.045Z,1000
2019-01-27T12:35:02.488Z,1000
2019-01-27T12:40:02.976Z,834
2019-01-27T12:45:02.426Z,834
2019-01-27T12:50:02.842Z,1000
2019-01-27T12:55:03.190Z,998
2019-01-27T13:00:02.625Z,1000
2019-01-27T13:05:03.055Z,971
2019-01-27T13:10:02.462Z,1000
2019-01-27T13:15:02.798Z,2000
2019-01-27T13:20:03.163Z,1000
2019-01-27T13:25:02.481Z,1000
2019-01-27T13:30:02.997Z,758
2019-01-27T13:35:02.337Z,1000
2019-01-27T13:40:02.799Z,860
2019-01-27T13:45:03.228Z,836
2019-01-27T13:50:02.628Z,919
2019-01-27T13:55:02.976Z,867
2019-01-27T14:00:02.388Z,679
2019-01-27T14:05:02.810Z,982
2019-01-27T14:10:03.280Z,1000
2019-01-27T14:15:02.799Z,1000
2019-01-27T14:20:03.150Z,817
2019-01-27T14:25:02.557Z,719
2019-01-27T14:30:02.928Z,874
2019-01-27T14:35:03.276Z,1000
2019-01-27T14:40:02.761Z,687
2019-01-27T14:45:03.111Z,789
2019-01-27T14:50:02.528Z,1000
2019-01-27T14:55:02.895Z,1000
2019-01-27T15:00:03.312Z,1000
2019-01-27T15:05:02.728Z,1000
2019-01-27T15:10:03.181Z,2000
2019-01-27T15:15:02.606Z,1000
2019-01-27T15:20:02.957Z,1000
2019-01-27T15:25:03.284Z,852
2019-01-27T15:30:02.728Z,613
2019-01-27T15:35:03.175Z,514
2019-01-27T15:40:02.653Z,422
2019-01-27T15:45:03.005Z,425
2019-01-27T15:50:02.412Z,387
2019-01-27T15:55:02.877Z,156
2019-01-27T16:00:07.738Z,92
2019-01-27T16:05:03.136Z,64
2019-01-27T16:10:02.555Z,53
2019-01-27T16:15:02.954Z,61
2019-01-27T16:20:03.346Z,50
2019-01-27T16:25:02.759Z,41
2019-01-27T16:30:03.095Z,24
2019-01-27T16:35:02.514Z,14
2019-01-27T16:40:02.961Z,8
2019-01-27T16:45:03.401Z,2
2019-01-27T16:50:02.820Z,2
2019-01-27T16:55:03.303Z,1
2019-01-27T17:00:02.623Z,1
2019-01-27T17:05:03.024Z,1
2019-01-27T17:10:02.448Z,1
2019-01-27T17:15:02.789Z,1
2019-01-27T17:20:03.277Z,1
2019-01-27T17:25:02.640Z,1
2019-01-27T17:30:03.206Z,1
2019-01-27T17:35:02.617Z,1
2019-01-27T17:40:03.054Z,1
2019-01-27T17:45:02.373Z,1
2019-01-27T17:50:02.717Z,1
2019-01-27T17:55:03.055Z,1
2019-01-27T18:00:02.475Z,1
2019-01-27T18:05:02.817Z,0
2019-01-27T18:10:03.268Z,0
2019-01-27T18:15:02.681Z,0
2019-01-27T18:20:03.141Z,0
2019-01-27T18:25:02.565Z,1
2019-01-27T18:30:02.997Z,0
2019-01-27T18:35:02.434Z,0
2019-01-27T18:40:02.866Z,1
2019-01-27T18:45:03.288Z,1
2019-01-27T18:50:02.763Z,1
2019-01-27T18:55:03.158Z,1
2019-01-27T19:00:02.569Z,1
2019-01-27T19:05:02.910Z,1
2019-01-27T19:10:02.441Z,1
2019-01-27T19:15:02.915Z,1
2019-01-27T19:20:03.350Z,1
2019-01-27T19:25:02.731Z,1
2019-01-27T19:30:03.088Z,1
2019-01-27T19:35:02.509Z,1
2019-01-27T19:40:02.942Z,1
2019-01-27T19:45:03.425Z,1
2019-01-27T19:50:02.803Z,0
2019-01-27T19:55:03.142Z,1
2019-01-27T20:00:02.557Z,1
2019-01-27T20:05:02.922Z,1
2019-01-27T20:10:02.322Z,1
2019-01-27T20:15:02.669Z,1
2019-01-27T20:20:02.213Z,1
2019-01-27T20:25:02.640Z,1
2019-01-27T20:30:03.292Z,1
2019-01-27T20:35:02.702Z,1
2019-01-27T20:40:03.143Z,1
2019-01-27T20:45:02.601Z,1
2019-01-27T20:50:03.027Z,1
2019-01-27T20:55:02.383Z,1
2019-01-27T21:00:02.790Z,1
2019-01-27T21:05:03.287Z,1
2019-01-27T21:10:02.723Z,1
2019-01-27T21:15:03.058Z,1
2019-01-27T21:20:02.488Z,1
2019-01-27T21:25:02.856Z,1
2019-01-27T21:30:03.308Z,1
2019-01-27T21:35:02.718Z,1
2019-01-27T21:40:03.147Z,1
2019-01-27T21:45:02.558Z,1
2019-01-27T21:50:02.893Z,1
2019-01-27T21:55:03.247Z,1
2019-01-27T22:00:02.542Z,1
2019-01-27T22:05:02.895Z,1
2019-01-27T22:10:03.375Z,1
2019-01-27T22:15:02.761Z,1
2019-01-27T22:20:03.235Z,1
2019-01-27T22:25:02.647Z,1
2019-01-27T22:30:03.068Z,1
2019-01-27T22:35:02.489Z,1
2019-01-27T22:40:02.925Z,1
2019-01-27T22:45:03.273Z,1
2019-01-27T22:50:02.724Z,1
2019-01-27T22:55:03.134Z,1
2019-01-27T23:00:03.426Z,1
2019-01-27T23:05:02.849Z,1
2019-01-27T23:10:03.330Z,1
2019-01-27T23:15:02.755Z,1
2019-01-27T23:20:03.233Z,1
2019-01-27T23:25:02.645Z,1
2019-01-27T23:30:03.062Z,1
2019-01-27T23:35:02.473Z,1
2019-01-27T23:40:02.922Z,1
2019-01-27T23:45:03.356Z,1
2019-01-27T23:50:02.776Z,1
2019-01-27T23:55:03.121Z,1
